sensor_id;sensor_type;location;lat;lon;timestamp;P1;durP1;ratioP1;P2;durP2;ratioP2
43337;SDS011;28933;52.492;13.434;2022-11-21T00:00:24;20.02;;;12.95;;
43337;SDS011;28933;52.492;13.434;2022-11-21T00:02:50;20.90;;;12.95;;
43337;SDS011;28933;52.492;13.434;2022-11-21T00:05:16;19.05;;;12.95;;
43337;SDS011;28933;52.492;13.434;2022-11-21T00:07:41;22.88;;;14.30;;
43337;SDS011;28933;52.492;13.434;2022-11-21T00:10:08;23.02;;;14.27;;
43337;SDS011;28933;52.492;13.434;2022-11-21T00:12:33;23.75;;;13.63;;
43337;SDS011;28933;52.492;13.434;2022-11-21T00:14:59;23.65;;;14.82;;
43337;SDS011;28933;52.492;13.434;2022-11-21T00:17:25;22.83;;;14.45;;
43337;SDS011;28933;52.492;13.434;2022-11-21T00:19:50;24.45;;;15.98;;
43337;SDS011;28933;52.492;13.434;2022-11-21T00:22:17;27.58;;;15.57;;
43337;SDS011;28933;52.492;13.434;2022-11-21T00:24:43;26.40;;;14.70;;
43337;SDS011;28933;52.492;13.434;2022-11-21T00:27:09;24.27;;;14.70;;
43337;SDS011;28933;52.492;13.434;2022-11-21T00:29:34;22.85;;;13.45;;
43337;SDS011;28933;52.492;13.434;2022-11-21T00:32:00;25.05;;;14.80;;
43337;SDS011;28933;52.492;13.434;2022-11-21T00:34:25;24.38;;;13.55;;
43337;SDS011;28933;52.492;13.434;2022-11-21T00:36:51;25.55;;;14.95;;
43337;SDS011;28933;52.492;13.434;2022-11-21T00:39:16;21.73;;;14.50;;
43337;SDS011;28933;52.492;13.434;2022-11-21T00:41:43;23.30;;;14.48;;
43337;SDS011;28933;52.492;13.434;2022-11-21T00:44:09;27.40;;;14.80;;
43337;SDS011;28933;52.492;13.434;2022-11-21T00:46:34;23.75;;;13.23;;
43337;SDS011;28933;52.492;13.434;2022-11-21T00:49:00;21.90;;;13.30;;
43337;SDS011;28933;52.492;13.434;2022-11-21T00:51:26;22.63;;;13.43;;
43337;SDS011;28933;52.492;13.434;2022-11-21T00:53:52;23.20;;;13.30;;
43337;SDS011;28933;52.492;13.434;2022-11-21T00:56:17;22.42;;;14.00;;
43337;SDS011;28933;52.492;13.434;2022-11-21T00:58:43;27.10;;;15.60;;
43337;SDS011;28933;52.492;13.434;2022-11-21T01:01:10;28.77;;;15.73;;
43337;SDS011;28933;52.492;13.434;2022-11-21T01:03:39;22.92;;;13.13;;
43337;SDS011;28933;52.492;13.434;2022-11-21T01:06:06;22.35;;;14.05;;
43337;SDS011;28933;52.492;13.434;2022-11-21T01:08:38;21.88;;;14.07;;
43337;SDS011;28933;52.492;13.434;2022-11-21T01:11:07;23.02;;;14.25;;
43337;SDS011;28933;52.492;13.434;2022-11-21T01:13:39;19.88;;;12.65;;
43337;SDS011;28933;52.492;13.434;2022-11-21T01:16:09;21.98;;;13.50;;
43337;SDS011;28933;52.492;13.434;2022-11-21T01:18:38;19.85;;;12.43;;
43337;SDS011;28933;52.492;13.434;2022-11-21T01:21:07;21.02;;;13.00;;
43337;SDS011;28933;52.492;13.434;2022-11-21T01:23:39;20.05;;;12.82;;
43337;SDS011;28933;52.492;13.434;2022-11-21T01:26:06;19.15;;;12.50;;
43337;SDS011;28933;52.492;13.434;2022-11-21T01:28:33;22.92;;;13.15;;
43337;SDS011;28933;52.492;13.434;2022-11-21T01:31:09;20.50;;;13.43;;
43337;SDS011;28933;52.492;13.434;2022-11-21T01:33:37;20.98;;;12.07;;
43337;SDS011;28933;52.492;13.434;2022-11-21T01:36:07;20.35;;;12.73;;
43337;SDS011;28933;52.492;13.434;2022-11-21T01:38:54;20.92;;;12.98;;
43337;SDS011;28933;52.492;13.434;2022-11-21T01:41:26;20.83;;;13.65;;
43337;SDS011;28933;52.492;13.434;2022-11-21T01:43:58;22.15;;;13.50;;
43337;SDS011;28933;52.492;13.434;2022-11-21T01:46:24;21.98;;;13.48;;
43337;SDS011;28933;52.492;13.434;2022-11-21T01:54:02;22.00;;;13.65;;
43337;SDS011;28933;52.492;13.434;2022-11-21T01:56:37;22.13;;;14.32;;
43337;SDS011;28933;52.492;13.434;2022-11-21T01:59:11;19.33;;;13.35;;
43337;SDS011;28933;52.492;13.434;2022-11-21T02:01:44;20.38;;;13.05;;
43337;SDS011;28933;52.492;13.434;2022-11-21T02:04:11;19.02;;;12.57;;
43337;SDS011;28933;52.492;13.434;2022-11-21T02:06:37;21.42;;;13.38;;
43337;SDS011;28933;52.492;13.434;2022-11-21T02:09:03;20.23;;;12.60;;
43337;SDS011;28933;52.492;13.434;2022-11-21T02:11:35;20.95;;;13.45;;
43337;SDS011;28933;52.492;13.434;2022-11-21T02:14:08;21.38;;;13.70;;
43337;SDS011;28933;52.492;13.434;2022-11-21T02:16:35;19.85;;;12.23;;
43337;SDS011;28933;52.492;13.434;2022-11-21T02:19:01;20.35;;;12.73;;
43337;SDS011;28933;52.492;13.434;2022-11-21T02:21:33;23.15;;;13.05;;
43337;SDS011;28933;52.492;13.434;2022-11-21T02:27:39;20.48;;;12.93;;
43337;SDS011;28933;52.492;13.434;2022-11-21T02:30:06;21.42;;;12.73;;
43337;SDS011;28933;52.492;13.434;2022-11-21T02:32:37;20.88;;;12.43;;
43337;SDS011;28933;52.492;13.434;2022-11-21T02:35:06;20.60;;;12.35;;
43337;SDS011;28933;52.492;13.434;2022-11-21T02:37:33;19.25;;;12.40;;
43337;SDS011;28933;52.492;13.434;2022-11-21T02:40:02;21.40;;;14.02;;
43337;SDS011;28933;52.492;13.434;2022-11-21T02:42:42;22.20;;;12.82;;
43337;SDS011;28933;52.492;13.434;2022-11-21T02:45:20;21.27;;;13.20;;
43337;SDS011;28933;52.492;13.434;2022-11-21T02:47:53;19.65;;;12.90;;
43337;SDS011;28933;52.492;13.434;2022-11-21T02:50:28;19.63;;;12.23;;
43337;SDS011;28933;52.492;13.434;2022-11-21T02:53:14;19.58;;;11.68;;
43337;SDS011;28933;52.492;13.434;2022-11-21T02:55:44;20.85;;;12.88;;
43337;SDS011;28933;52.492;13.434;2022-11-21T02:58:10;20.98;;;12.07;;
43337;SDS011;28933;52.492;13.434;2022-11-21T03:00:37;24.23;;;13.90;;
43337;SDS011;28933;52.492;13.434;2022-11-21T03:03:04;19.88;;;11.88;;
43337;SDS011;28933;52.492;13.434;2022-11-21T03:05:30;22.67;;;13.10;;
43337;SDS011;28933;52.492;13.434;2022-11-21T03:07:56;21.52;;;13.23;;
43337;SDS011;28933;52.492;13.434;2022-11-21T03:10:22;22.95;;;12.90;;
43337;SDS011;28933;52.492;13.434;2022-11-21T03:12:48;21.77;;;13.02;;
43337;SDS011;28933;52.492;13.434;2022-11-21T03:15:14;24.05;;;12.10;;
43337;SDS011;28933;52.492;13.434;2022-11-21T03:17:40;22.38;;;13.45;;
43337;SDS011;28933;52.492;13.434;2022-11-21T03:20:06;21.08;;;13.13;;
43337;SDS011;28933;52.492;13.434;2022-11-21T03:22:32;22.92;;;12.50;;
43337;SDS011;28933;52.492;13.434;2022-11-21T03:24:58;23.77;;;13.68;;
43337;SDS011;28933;52.492;13.434;2022-11-21T03:27:24;25.13;;;13.75;;
43337;SDS011;28933;52.492;13.434;2022-11-21T03:29:50;20.05;;;13.73;;
43337;SDS011;28933;52.492;13.434;2022-11-21T03:32:16;22.25;;;13.98;;
43337;SDS011;28933;52.492;13.434;2022-11-21T03:34:41;20.40;;;13.50;;
43337;SDS011;28933;52.492;13.434;2022-11-21T03:37:07;19.85;;;12.60;;
43337;SDS011;28933;52.492;13.434;2022-11-21T03:39:33;26.02;;;14.15;;
43337;SDS011;28933;52.492;13.434;2022-11-21T03:41:59;23.10;;;13.80;;
43337;SDS011;28933;52.492;13.434;2022-11-21T03:44:24;20.55;;;13.10;;
43337;SDS011;28933;52.492;13.434;2022-11-21T03:46:50;22.23;;;14.30;;
43337;SDS011;28933;52.492;13.434;2022-11-21T03:49:16;22.55;;;13.57;;
43337;SDS011;28933;52.492;13.434;2022-11-21T03:51:42;23.25;;;14.02;;
43337;SDS011;28933;52.492;13.434;2022-11-21T03:54:08;24.20;;;14.55;;
43337;SDS011;28933;52.492;13.434;2022-11-21T03:56:34;21.38;;;13.30;;
43337;SDS011;28933;52.492;13.434;2022-11-21T03:59:00;20.88;;;13.30;;
43337;SDS011;28933;52.492;13.434;2022-11-21T04:01:27;22.20;;;13.45;;
43337;SDS011;28933;52.492;13.434;2022-11-21T04:03:52;21.20;;;12.95;;
43337;SDS011;28933;52.492;13.434;2022-11-21T04:06:19;22.90;;;13.55;;
43337;SDS011;28933;52.492;13.434;2022-11-21T04:08:46;21.55;;;13.45;;
43337;SDS011;28933;52.492;13.434;2022-11-21T04:11:12;24.33;;;13.23;;
43337;SDS011;28933;52.492;13.434;2022-11-21T04:13:38;23.13;;;14.40;;
43337;SDS011;28933;52.492;13.434;2022-11-21T04:16:03;21.58;;;13.40;;
43337;SDS011;28933;52.492;13.434;2022-11-21T04:18:32;22.80;;;13.95;;
43337;SDS011;28933;52.492;13.434;2022-11-21T04:20:58;21.60;;;14.15;;
43337;SDS011;28933;52.492;13.434;2022-11-21T04:23:26;24.65;;;14.90;;
43337;SDS011;28933;52.492;13.434;2022-11-21T04:25:52;21.83;;;13.98;;
43337;SDS011;28933;52.492;13.434;2022-11-21T04:28:19;20.20;;;13.13;;
43337;SDS011;28933;52.492;13.434;2022-11-21T04:30:45;23.90;;;14.63;;
43337;SDS011;28933;52.492;13.434;2022-11-21T04:33:11;22.10;;;13.27;;
43337;SDS011;28933;52.492;13.434;2022-11-21T04:35:38;24.80;;;14.75;;
43337;SDS011;28933;52.492;13.434;2022-11-21T04:38:04;21.98;;;13.82;;
43337;SDS011;28933;52.492;13.434;2022-11-21T04:40:29;23.58;;;14.23;;
43337;SDS011;28933;52.492;13.434;2022-11-21T04:42:55;24.65;;;15.45;;
43337;SDS011;28933;52.492;13.434;2022-11-21T04:45:20;25.92;;;14.77;;
43337;SDS011;28933;52.492;13.434;2022-11-21T04:47:46;22.40;;;13.85;;
43337;SDS011;28933;52.492;13.434;2022-11-21T04:50:14;24.45;;;13.85;;
43337;SDS011;28933;52.492;13.434;2022-11-21T04:52:41;24.50;;;14.52;;
43337;SDS011;28933;52.492;13.434;2022-11-21T04:55:07;23.88;;;14.80;;
43337;SDS011;28933;52.492;13.434;2022-11-21T04:57:33;21.73;;;14.48;;
43337;SDS011;28933;52.492;13.434;2022-11-21T04:59:59;23.15;;;13.07;;
43337;SDS011;28933;52.492;13.434;2022-11-21T05:02:24;24.13;;;14.02;;
43337;SDS011;28933;52.492;13.434;2022-11-21T05:04:50;23.08;;;13.80;;
43337;SDS011;28933;52.492;13.434;2022-11-21T05:07:16;25.13;;;14.95;;
43337;SDS011;28933;52.492;13.434;2022-11-21T05:09:42;22.90;;;14.55;;
43337;SDS011;28933;52.492;13.434;2022-11-21T05:12:08;22.77;;;14.05;;
43337;SDS011;28933;52.492;13.434;2022-11-21T05:17:19;22.70;;;14.02;;
43337;SDS011;28933;52.492;13.434;2022-11-21T05:19:45;24.52;;;14.43;;
43337;SDS011;28933;52.492;13.434;2022-11-21T05:22:10;27.67;;;16.48;;
43337;SDS011;28933;52.492;13.434;2022-11-21T05:24:36;25.52;;;15.25;;
43337;SDS011;28933;52.492;13.434;2022-11-21T05:27:02;20.88;;;14.45;;
43337;SDS011;28933;52.492;13.434;2022-11-21T05:29:28;27.40;;;15.60;;
43337;SDS011;28933;52.492;13.434;2022-11-21T05:31:54;25.58;;;15.07;;
43337;SDS011;28933;52.492;13.434;2022-11-21T05:34:21;26.15;;;14.68;;
43337;SDS011;28933;52.492;13.434;2022-11-21T05:36:47;25.17;;;15.05;;
43337;SDS011;28933;52.492;13.434;2022-11-21T05:39:13;23.05;;;15.00;;
43337;SDS011;28933;52.492;13.434;2022-11-21T05:41:40;23.98;;;14.52;;
43337;SDS011;28933;52.492;13.434;2022-11-21T05:44:05;25.02;;;14.95;;
43337;SDS011;28933;52.492;13.434;2022-11-21T05:46:31;24.42;;;14.25;;
43337;SDS011;28933;52.492;13.434;2022-11-21T05:48:57;25.00;;;14.25;;
43337;SDS011;28933;52.492;13.434;2022-11-21T05:51:23;25.55;;;14.10;;
43337;SDS011;28933;52.492;13.434;2022-11-21T05:53:48;23.23;;;14.20;;
43337;SDS011;28933;52.492;13.434;2022-11-21T05:56:15;24.30;;;15.40;;
43337;SDS011;28933;52.492;13.434;2022-11-21T05:58:43;23.35;;;14.70;;
43337;SDS011;28933;52.492;13.434;2022-11-21T06:01:13;21.77;;;14.40;;
43337;SDS011;28933;52.492;13.434;2022-11-21T06:03:40;23.20;;;14.32;;
43337;SDS011;28933;52.492;13.434;2022-11-21T06:06:07;25.70;;;15.20;;
43337;SDS011;28933;52.492;13.434;2022-11-21T06:11:03;27.15;;;16.00;;
43337;SDS011;28933;52.492;13.434;2022-11-21T06:13:30;28.17;;;15.95;;
43337;SDS011;28933;52.492;13.434;2022-11-21T06:16:01;28.30;;;18.05;;
43337;SDS011;28933;52.492;13.434;2022-11-21T06:18:32;28.20;;;17.15;;
43337;SDS011;28933;52.492;13.434;2022-11-21T06:21:02;26.88;;;16.92;;
43337;SDS011;28933;52.492;13.434;2022-11-21T06:23:32;27.13;;;16.00;;
43337;SDS011;28933;52.492;13.434;2022-11-21T06:25:59;24.27;;;15.23;;
43337;SDS011;28933;52.492;13.434;2022-11-21T06:28:29;25.90;;;14.85;;
43337;SDS011;28933;52.492;13.434;2022-11-21T06:30:55;28.15;;;16.83;;
43337;SDS011;28933;52.492;13.434;2022-11-21T06:33:21;28.08;;;16.42;;
43337;SDS011;28933;52.492;13.434;2022-11-21T06:35:47;27.00;;;16.83;;
43337;SDS011;28933;52.492;13.434;2022-11-21T06:38:13;26.77;;;16.55;;
43337;SDS011;28933;52.492;13.434;2022-11-21T06:40:42;26.25;;;15.63;;
43337;SDS011;28933;52.492;13.434;2022-11-21T06:43:08;24.65;;;16.00;;
43337;SDS011;28933;52.492;13.434;2022-11-21T06:45:34;28.33;;;17.45;;
43337;SDS011;28933;52.492;13.434;2022-11-21T06:48:03;27.52;;;17.38;;
43337;SDS011;28933;52.492;13.434;2022-11-21T06:50:29;27.50;;;15.95;;
43337;SDS011;28933;52.492;13.434;2022-11-21T06:52:57;22.02;;;14.75;;
43337;SDS011;28933;52.492;13.434;2022-11-21T06:55:24;29.35;;;15.80;;
43337;SDS011;28933;52.492;13.434;2022-11-21T06:57:52;28.75;;;16.65;;
43337;SDS011;28933;52.492;13.434;2022-11-21T07:00:19;26.38;;;16.33;;
43337;SDS011;28933;52.492;13.434;2022-11-21T07:02:45;24.42;;;15.27;;
43337;SDS011;28933;52.492;13.434;2022-11-21T07:05:11;28.73;;;16.85;;
43337;SDS011;28933;52.492;13.434;2022-11-21T07:07:36;29.40;;;17.70;;
43337;SDS011;28933;52.492;13.434;2022-11-21T07:10:02;28.75;;;17.70;;
43337;SDS011;28933;52.492;13.434;2022-11-21T07:12:28;29.17;;;16.92;;
43337;SDS011;28933;52.492;13.434;2022-11-21T07:15:12;25.33;;;15.77;;
43337;SDS011;28933;52.492;13.434;2022-11-21T07:17:38;26.15;;;16.08;;
43337;SDS011;28933;52.492;13.434;2022-11-21T07:20:04;26.85;;;16.13;;
43337;SDS011;28933;52.492;13.434;2022-11-21T07:22:30;29.67;;;17.80;;
43337;SDS011;28933;52.492;13.434;2022-11-21T07:24:55;26.95;;;16.25;;
43337;SDS011;28933;52.492;13.434;2022-11-21T07:27:21;27.25;;;16.50;;
43337;SDS011;28933;52.492;13.434;2022-11-21T07:29:47;26.13;;;16.23;;
43337;SDS011;28933;52.492;13.434;2022-11-21T07:32:13;28.05;;;15.75;;
43337;SDS011;28933;52.492;13.434;2022-11-21T07:34:39;29.73;;;17.13;;
43337;SDS011;28933;52.492;13.434;2022-11-21T07:37:04;29.67;;;18.38;;
43337;SDS011;28933;52.492;13.434;2022-11-21T07:39:30;31.15;;;18.98;;
43337;SDS011;28933;52.492;13.434;2022-11-21T07:41:55;29.85;;;18.13;;
43337;SDS011;28933;52.492;13.434;2022-11-21T07:44:21;29.48;;;17.48;;
43337;SDS011;28933;52.492;13.434;2022-11-21T07:46:47;29.92;;;18.17;;
43337;SDS011;28933;52.492;13.434;2022-11-21T07:49:12;29.08;;;18.27;;
43337;SDS011;28933;52.492;13.434;2022-11-21T07:51:38;34.30;;;18.50;;
43337;SDS011;28933;52.492;13.434;2022-11-21T07:54:03;30.17;;;18.20;;
43337;SDS011;28933;52.492;13.434;2022-11-21T07:56:29;34.70;;;19.58;;
43337;SDS011;28933;52.492;13.434;2022-11-21T07:58:55;27.58;;;17.00;;
43337;SDS011;28933;52.492;13.434;2022-11-21T08:01:20;31.17;;;19.10;;
43337;SDS011;28933;52.492;13.434;2022-11-21T08:03:46;32.60;;;19.08;;
43337;SDS011;28933;52.492;13.434;2022-11-21T08:06:12;30.92;;;20.05;;
43337;SDS011;28933;52.492;13.434;2022-11-21T08:08:37;32.83;;;18.42;;
43337;SDS011;28933;52.492;13.434;2022-11-21T08:11:04;31.83;;;19.23;;
43337;SDS011;28933;52.492;13.434;2022-11-21T08:13:30;29.48;;;17.52;;
43337;SDS011;28933;52.492;13.434;2022-11-21T08:15:56;31.83;;;20.17;;
43337;SDS011;28933;52.492;13.434;2022-11-21T08:18:22;34.38;;;20.02;;
43337;SDS011;28933;52.492;13.434;2022-11-21T08:20:47;34.47;;;21.27;;
43337;SDS011;28933;52.492;13.434;2022-11-21T08:23:13;34.97;;;22.98;;
43337;SDS011;28933;52.492;13.434;2022-11-21T08:25:42;36.90;;;20.83;;
43337;SDS011;28933;52.492;13.434;2022-11-21T08:28:09;37.20;;;21.23;;
43337;SDS011;28933;52.492;13.434;2022-11-21T08:30:36;34.30;;;18.80;;
43337;SDS011;28933;52.492;13.434;2022-11-21T08:33:05;31.15;;;19.50;;
43337;SDS011;28933;52.492;13.434;2022-11-21T08:35:30;26.77;;;17.00;;
43337;SDS011;28933;52.492;13.434;2022-11-21T08:37:57;32.38;;;19.63;;
43337;SDS011;28933;52.492;13.434;2022-11-21T08:40:24;29.77;;;18.35;;
43337;SDS011;28933;52.492;13.434;2022-11-21T08:43:03;29.48;;;18.50;;
43337;SDS011;28933;52.492;13.434;2022-11-21T08:45:31;30.95;;;17.90;;
43337;SDS011;28933;52.492;13.434;2022-11-21T08:47:58;25.88;;;17.55;;
43337;SDS011;28933;52.492;13.434;2022-11-21T08:50:24;23.35;;;14.55;;
43337;SDS011;28933;52.492;13.434;2022-11-21T08:52:50;23.83;;;14.85;;
43337;SDS011;28933;52.492;13.434;2022-11-21T08:55:16;26.48;;;16.15;;
43337;SDS011;28933;52.492;13.434;2022-11-21T09:01:04;27.00;;;16.48;;
43337;SDS011;28933;52.492;13.434;2022-11-21T09:03:29;26.60;;;15.57;;
43337;SDS011;28933;52.492;13.434;2022-11-21T09:05:55;27.48;;;16.05;;
43337;SDS011;28933;52.492;13.434;2022-11-21T09:08:21;23.15;;;14.55;;
43337;SDS011;28933;52.492;13.434;2022-11-21T09:10:47;25.95;;;15.27;;
43337;SDS011;28933;52.492;13.434;2022-11-21T09:13:12;23.73;;;14.48;;
43337;SDS011;28933;52.492;13.434;2022-11-21T09:15:38;24.90;;;15.18;;
43337;SDS011;28933;52.492;13.434;2022-11-21T09:18:22;24.80;;;14.77;;
43337;SDS011;28933;52.492;13.434;2022-11-21T09:20:48;24.80;;;15.30;;
43337;SDS011;28933;52.492;13.434;2022-11-21T09:23:14;24.45;;;13.85;;
43337;SDS011;28933;52.492;13.434;2022-11-21T09:25:41;27.40;;;15.63;;
43337;SDS011;28933;52.492;13.434;2022-11-21T09:28:07;27.15;;;16.67;;
43337;SDS011;28933;52.492;13.434;2022-11-21T09:30:34;32.05;;;18.02;;
43337;SDS011;28933;52.492;13.434;2022-11-21T09:33:01;31.55;;;18.10;;
43337;SDS011;28933;52.492;13.434;2022-11-21T09:35:27;27.77;;;16.30;;
43337;SDS011;28933;52.492;13.434;2022-11-21T09:37:53;33.78;;;19.00;;
43337;SDS011;28933;52.492;13.434;2022-11-21T09:40:19;32.67;;;17.58;;
43337;SDS011;28933;52.492;13.434;2022-11-21T09:45:47;30.17;;;16.67;;
43337;SDS011;28933;52.492;13.434;2022-11-21T09:48:19;29.02;;;17.02;;
43337;SDS011;28933;52.492;13.434;2022-11-21T09:50:53;31.38;;;17.23;;
43337;SDS011;28933;52.492;13.434;2022-11-21T09:53:24;32.75;;;18.67;;
43337;SDS011;28933;52.492;13.434;2022-11-21T09:56:20;31.50;;;17.20;;
43337;SDS011;28933;52.492;13.434;2022-11-21T10:01:16;28.20;;;15.93;;
43337;SDS011;28933;52.492;13.434;2022-11-21T10:03:42;29.50;;;17.63;;
43337;SDS011;28933;52.492;13.434;2022-11-21T10:06:25;30.90;;;16.85;;
43337;SDS011;28933;52.492;13.434;2022-11-21T10:14:02;29.27;;;15.57;;
43337;SDS011;28933;52.492;13.434;2022-11-21T10:16:47;23.42;;;14.75;;
43337;SDS011;28933;52.492;13.434;2022-11-21T10:30:34;22.50;;;12.98;;
43337;SDS011;28933;52.492;13.434;2022-11-21T10:33:02;23.17;;;14.15;;
43337;SDS011;28933;52.492;13.434;2022-11-21T10:35:30;21.52;;;13.48;;
43337;SDS011;28933;52.492;13.434;2022-11-21T10:38:12;20.48;;;13.10;;
43337;SDS011;28933;52.492;13.434;2022-11-21T10:40:46;22.33;;;12.85;;
43337;SDS011;28933;52.492;13.434;2022-11-21T10:43:38;20.48;;;12.20;;
43337;SDS011;28933;52.492;13.434;2022-11-21T10:46:24;22.50;;;13.07;;
43337;SDS011;28933;52.492;13.434;2022-11-21T10:48:55;22.52;;;13.10;;
43337;SDS011;28933;52.492;13.434;2022-11-21T10:54:07;24.10;;;14.32;;
43337;SDS011;28933;52.492;13.434;2022-11-21T10:56:54;21.75;;;14.52;;
43337;SDS011;28933;52.492;13.434;2022-11-21T10:59:24;23.60;;;14.70;;
43337;SDS011;28933;52.492;13.434;2022-11-21T11:01:56;26.30;;;14.38;;
43337;SDS011;28933;52.492;13.434;2022-11-21T11:04:42;24.30;;;15.00;;
43337;SDS011;28933;52.492;13.434;2022-11-21T11:07:26;23.63;;;13.55;;
43337;SDS011;28933;52.492;13.434;2022-11-21T11:09:52;20.58;;;12.63;;
43337;SDS011;28933;52.492;13.434;2022-11-21T11:12:46;20.27;;;13.05;;
43337;SDS011;28933;52.492;13.434;2022-11-21T11:15:33;21.05;;;12.73;;
43337;SDS011;28933;52.492;13.434;2022-11-21T11:18:00;19.45;;;12.00;;
43337;SDS011;28933;52.492;13.434;2022-11-21T11:20:40;19.48;;;12.68;;
43337;SDS011;28933;52.492;13.434;2022-11-21T11:25:48;18.40;;;11.00;;
43337;SDS011;28933;52.492;13.434;2022-11-21T11:28:15;20.17;;;11.55;;
43337;SDS011;28933;52.492;13.434;2022-11-21T11:30:43;16.13;;;10.52;;
43337;SDS011;28933;52.492;13.434;2022-11-21T11:33:48;18.17;;;11.82;;
43337;SDS011;28933;52.492;13.434;2022-11-21T11:38:34;15.50;;;9.65;;
43337;SDS011;28933;52.492;13.434;2022-11-21T11:40:59;17.05;;;10.48;;
43337;SDS011;28933;52.492;13.434;2022-11-21T11:43:40;19.00;;;10.82;;
43337;SDS011;28933;52.492;13.434;2022-11-21T11:47:00;14.68;;;9.00;;
43337;SDS011;28933;52.492;13.434;2022-11-21T11:50:08;13.85;;;9.10;;
43337;SDS011;28933;52.492;13.434;2022-11-21T11:58:13;14.13;;;8.10;;
43337;SDS011;28933;52.492;13.434;2022-11-21T12:00:53;12.45;;;7.50;;
43337;SDS011;28933;52.492;13.434;2022-11-21T12:03:30;13.75;;;7.97;;
43337;SDS011;28933;52.492;13.434;2022-11-21T12:09:29;12.85;;;8.07;;
43337;SDS011;28933;52.492;13.434;2022-11-21T12:17:39;11.93;;;7.63;;
43337;SDS011;28933;52.492;13.434;2022-11-21T12:20:17;9.77;;;6.88;;
43337;SDS011;28933;52.492;13.434;2022-11-21T12:22:56;12.02;;;8.40;;
43337;SDS011;28933;52.492;13.434;2022-11-21T12:25:29;12.80;;;7.35;;
43337;SDS011;28933;52.492;13.434;2022-11-21T12:28:00;11.50;;;7.78;;
43337;SDS011;28933;52.492;13.434;2022-11-21T12:33:21;11.40;;;7.43;;
43337;SDS011;28933;52.492;13.434;2022-11-21T12:36:08;11.00;;;7.00;;
43337;SDS011;28933;52.492;13.434;2022-11-21T12:39:12;10.43;;;6.70;;
43337;SDS011;28933;52.492;13.434;2022-11-21T12:48:19;12.52;;;7.57;;
43337;SDS011;28933;52.492;13.434;2022-11-21T12:50:47;12.43;;;8.05;;
43337;SDS011;28933;52.492;13.434;2022-11-21T12:59:24;11.80;;;7.88;;
43337;SDS011;28933;52.492;13.434;2022-11-21T13:01:59;13.00;;;8.57;;
43337;SDS011;28933;52.492;13.434;2022-11-21T13:04:37;13.32;;;9.30;;
43337;SDS011;28933;52.492;13.434;2022-11-21T13:07:06;11.32;;;8.05;;
43337;SDS011;28933;52.492;13.434;2022-11-21T13:09:35;14.65;;;9.43;;
43337;SDS011;28933;52.492;13.434;2022-11-21T13:12:12;13.50;;;9.32;;
43337;SDS011;28933;52.492;13.434;2022-11-21T13:17:48;13.15;;;7.85;;
43337;SDS011;28933;52.492;13.434;2022-11-21T13:20:38;13.77;;;8.63;;
43337;SDS011;28933;52.492;13.434;2022-11-21T13:25:57;14.68;;;9.45;;
43337;SDS011;28933;52.492;13.434;2022-11-21T13:28:28;12.25;;;8.15;;
43337;SDS011;28933;52.492;13.434;2022-11-21T13:30:56;14.38;;;8.55;;
43337;SDS011;28933;52.492;13.434;2022-11-21T13:39:22;17.08;;;10.13;;
43337;SDS011;28933;52.492;13.434;2022-11-21T13:46:56;16.05;;;10.13;;
43337;SDS011;28933;52.492;13.434;2022-11-21T13:49:27;16.65;;;10.10;;
43337;SDS011;28933;52.492;13.434;2022-11-21T13:52:07;14.93;;;9.52;;
43337;SDS011;28933;52.492;13.434;2022-11-21T13:57:34;16.60;;;9.73;;
43337;SDS011;28933;52.492;13.434;2022-11-21T14:06:28;14.95;;;9.80;;
43337;SDS011;28933;52.492;13.434;2022-11-21T14:14:37;16.15;;;10.95;;
43337;SDS011;28933;52.492;13.434;2022-11-21T14:19:53;14.60;;;10.23;;
43337;SDS011;28933;52.492;13.434;2022-11-21T14:22:25;12.02;;;9.00;;
43337;SDS011;28933;52.492;13.434;2022-11-21T14:24:51;15.52;;;10.30;;
43337;SDS011;28933;52.492;13.434;2022-11-21T14:27:27;15.32;;;10.55;;
43337;SDS011;28933;52.492;13.434;2022-11-21T14:29:56;16.33;;;10.52;;
43337;SDS011;28933;52.492;13.434;2022-11-21T14:32:28;16.27;;;9.93;;
43337;SDS011;28933;52.492;13.434;2022-11-21T14:35:18;16.70;;;10.55;;
43337;SDS011;28933;52.492;13.434;2022-11-21T14:37:45;17.17;;;10.63;;
43337;SDS011;28933;52.492;13.434;2022-11-21T14:40:11;15.00;;;10.77;;
43337;SDS011;28933;52.492;13.434;2022-11-21T14:42:43;16.42;;;10.55;;
43337;SDS011;28933;52.492;13.434;2022-11-21T14:45:19;15.93;;;11.70;;
43337;SDS011;28933;52.492;13.434;2022-11-21T14:47:47;16.73;;;11.80;;
43337;SDS011;28933;52.492;13.434;2022-11-21T14:50:27;18.58;;;12.80;;
43337;SDS011;28933;52.492;13.434;2022-11-21T14:52:55;16.20;;;10.25;;
43337;SDS011;28933;52.492;13.434;2022-11-21T14:55:32;18.15;;;11.32;;
43337;SDS011;28933;52.492;13.434;2022-11-21T14:57:59;17.50;;;11.30;;
43337;SDS011;28933;52.492;13.434;2022-11-21T15:00:28;17.60;;;12.30;;
43337;SDS011;28933;52.492;13.434;2022-11-21T15:02:55;18.23;;;11.63;;
43337;SDS011;28933;52.492;13.434;2022-11-21T15:05:28;18.13;;;12.82;;
43337;SDS011;28933;52.492;13.434;2022-11-21T15:07:56;18.30;;;11.82;;
43337;SDS011;28933;52.492;13.434;2022-11-21T15:10:24;19.65;;;11.55;;
43337;SDS011;28933;52.492;13.434;2022-11-21T15:13:13;17.42;;;12.23;;
43337;SDS011;28933;52.492;13.434;2022-11-21T15:15:41;16.35;;;11.30;;
43337;SDS011;28933;52.492;13.434;2022-11-21T15:18:43;17.38;;;11.13;;
43337;SDS011;28933;52.492;13.434;2022-11-21T15:21:04;15.20;;;10.98;;
43337;SDS011;28933;52.492;13.434;2022-11-21T15:23:34;20.88;;;11.77;;
43337;SDS011;28933;52.492;13.434;2022-11-21T15:26:04;17.15;;;11.38;;
43337;SDS011;28933;52.492;13.434;2022-11-21T15:28:30;17.55;;;11.68;;
43337;SDS011;28933;52.492;13.434;2022-11-21T15:33:55;19.25;;;12.32;;
43337;SDS011;28933;52.492;13.434;2022-11-21T15:36:21;19.38;;;11.82;;
43337;SDS011;28933;52.492;13.434;2022-11-21T15:39:05;17.38;;;11.20;;
43337;SDS011;28933;52.492;13.434;2022-11-21T15:41:36;16.13;;;10.85;;
43337;SDS011;28933;52.492;13.434;2022-11-21T15:48:58;19.23;;;12.40;;
43337;SDS011;28933;52.492;13.434;2022-11-21T15:51:26;19.10;;;12.50;;
43337;SDS011;28933;52.492;13.434;2022-11-21T15:53:59;19.45;;;12.85;;
43337;SDS011;28933;52.492;13.434;2022-11-21T15:56:25;18.38;;;12.02;;
43337;SDS011;28933;52.492;13.434;2022-11-21T15:58:51;19.60;;;13.00;;
43337;SDS011;28933;52.492;13.434;2022-11-21T16:01:18;17.70;;;11.93;;
43337;SDS011;28933;52.492;13.434;2022-11-21T16:03:47;16.70;;;10.65;;
43337;SDS011;28933;52.492;13.434;2022-11-21T16:06:13;16.05;;;11.32;;
43337;SDS011;28933;52.492;13.434;2022-11-21T16:08:39;17.10;;;11.43;;
43337;SDS011;28933;52.492;13.434;2022-11-21T16:11:06;18.90;;;11.80;;
43337;SDS011;28933;52.492;13.434;2022-11-21T16:13:32;25.90;;;13.10;;
43337;SDS011;28933;52.492;13.434;2022-11-21T16:16:00;17.50;;;11.32;;
43337;SDS011;28933;52.492;13.434;2022-11-21T16:18:26;17.13;;;11.40;;
43337;SDS011;28933;52.492;13.434;2022-11-21T16:21:02;17.40;;;11.20;;
43337;SDS011;28933;52.492;13.434;2022-11-21T16:23:29;18.80;;;12.25;;